Saturday, August 18, 2018, 3:49 PM EDT
Back to Local

KPEO, Penn Yan Airport

Location: Penn Yan, NY, United States Lat: 42.65
Local Time: 3:49 PM EDT (19:49 GMT) Lon: -77.05
Time Zone: US/Eastern Elev: 977 ft

Show me the last for .
Show Decoded

2018-08-18 15:12 METAR KPEO 181912Z AUTO 35007KT 330V030 10SM FEW014 FEW022 OVC029 22/17 A2994
                 RMK AO2 T02170167 =
2018-08-18 15:00 METAR KPEO 181900Z AUTO 34007KT 300V020 10SM FEW014 BKN030 22/17 A2994 RMK AO2
                 T02170167 =
2018-08-18 14:53 METAR KPEO 181853Z AUTO 35006KT 10SM SCT014 BKN023 OVC030 21/17 A2994 RMK AO2
                 SLP133 T02110172 =
2018-08-18 14:12 METAR KPEO 181812Z AUTO 33008KT 10SM FEW010 BKN015 OVC021 20/17 A2995 RMK AO2
                 T02000167 =
2018-08-18 13:53 METAR KPEO 181753Z AUTO VRB06KT 10SM BKN011 OVC017 19/17 A2995 RMK AO2 SLP135
                 60014 T01940167 10217 20183 52005 =
2018-08-18 13:27 METAR KPEO 181727Z AUTO 33006G15KT 10SM BKN012 OVC019 19/17 A2994 RMK AO2
                 T01940167 =
2018-08-18 13:09 METAR KPEO 181709Z AUTO 35007KT 10SM BKN015 BKN019 OVC028 20/17 A2994 RMK AO2
                 T02000172 =
2018-08-18 13:01 METAR KPEO 181701Z AUTO VRB03KT 10SM BKN014 OVC030 20/17 A2994 RMK AO2 T02000167
                 =
2018-08-18 12:53 METAR KPEO 181653Z AUTO 33009KT 10SM SCT014 BKN020 OVC028 21/17 A2994 RMK AO2
                 SLP133 T02060167 =
2018-08-18 12:18 METAR KPEO 181618Z AUTO 34005KT 10SM SCT013 OVC019 20/17 A2994 RMK AO2 T02000167
                 =
2018-08-18 12:08 METAR KPEO 181608Z AUTO VRB06KT 10SM BKN013 OVC028 21/17 A2994 RMK AO2 T02060172
                 =
2018-08-18 11:53 METAR KPEO 181553Z AUTO 36005KT 10SM FEW013 SCT019 OVC028 21/17 A2994 RMK AO2
                 SLP131 T02060172 =
2018-08-18 10:53 METAR KPEO 181453Z AUTO VRB04KT 10SM FEW013 BKN024 OVC110 21/18 A2993 RMK AO2
                 SLP129 60014 T02110178 51002 =
2018-08-18 10:35 METAR KPEO 181435Z AUTO VRB05KT 10SM FEW008 BKN015 BKN023 20/18 A2993 RMK AO2
                 T02000178 =
2018-08-18 10:28 METAR KPEO 181428Z AUTO VRB04KT 10SM SCT008 BKN013 BKN022 21/18 A2993 RMK AO2
                 T02060178 =
2018-08-18 09:53 METAR KPEO 181353Z AUTO 36005KT 10SM FEW006 OVC018 20/18 A2993 RMK AO2 RAE1258
                 SLP129 P0000 T02000178 =
2018-08-18 09:34 METAR KPEO 181334Z AUTO VRB03KT 10SM SCT006 OVC018 20/18 A2992 RMK AO2 RAE1258
                 P0000 T02000183 =
2018-08-18 09:15 METAR KPEO 181315Z AUTO VRB05KT 10SM SCT006 BKN011 OVC018 19/18 A2992 RMK AO2
                 RAE1258 P0000 T01940183 =
2018-08-18 08:53 METAR KPEO 181253Z AUTO VRB03KT 10SM -RA BKN006 OVC010 19/18 A2993 RMK AO2 CIG
                 003V008 SLP130 P0014 T01890178 =
2018-08-18 08:36 METAR KPEO 181236Z AUTO 34003KT 5SM -RA BR BKN005 OVC012 19/18 A2993 RMK AO2
                 P0014 T01890178 =
2018-08-18 08:28 METAR KPEO 181228Z AUTO VRB03KT 2 1/2SM -RA BR OVC005 19/18 A2993 RMK AO2 P0013
                 T01890178 =
2018-08-18 08:13 METAR KPEO 181213Z AUTO 00000KT 1 1/4SM +RA BR OVC004 18/18 A2992 RMK AO2 P0008
                 T01830178 =
2018-08-18 08:04 METAR KPEO 181204Z AUTO 34004KT 2SM +RA BR OVC003 18/18 A2992 RMK AO2 P0003
                 T01830178 =
2018-08-18 07:53 METAR KPEO 181153Z AUTO 00000KT 3SM RA BR OVC003 18/18 A2992 RMK AO2 SLP127
                 P0015 60025 70050 T01830178 10222 20183 51007 =
2018-08-18 07:30 METAR KPEO 181130Z AUTO 00000KT 3SM RA BR BKN003 BKN010 OVC014 18/18 A2992 RMK
                 AO2 P0010 T01830178 =
2018-08-18 07:25 METAR KPEO 181125Z AUTO 01003KT 2 1/2SM RA BR BKN005 BKN010 OVC014 18/18 A2992
                 RMK AO2 P0009 T01830178 =
2018-08-18 07:14 METAR KPEO 181114Z AUTO VRB03KT 2SM RA BR FEW005 BKN010 OVC023 18/18 A2991 RMK
                 AO2 P0007 T01830178 =
2018-08-18 07:07 METAR KPEO 181107Z AUTO 02004KT 1 3/4SM RA BR SCT005 SCT009 OVC014 18/18 A2991
                 RMK AO2 P0005 T01830178 =
2018-08-18 06:53 METAR KPEO 181053Z AUTO 35003KT 1 1/4SM +RA BR BKN007 OVC012 18/18 A2992 RMK AO2
                 RAB14 SLP124 P0010 T01830178 =
2018-08-18 06:44 METAR KPEO 181044Z AUTO 34004KT 2SM +RA BR SCT005 OVC009 19/18 A2991 RMK AO2
                 RAB14 P0005 T01890178 =
2018-08-18 06:31 METAR KPEO 181031Z AUTO 00000KT 7SM -RA SCT005 BKN009 OVC032 19/18 A2991 RMK AO2
                 RAB14 P0001 T01890178 =
2018-08-18 06:22 METAR KPEO 181022Z AUTO VRB05KT 10SM -RA SCT005 BKN017 OVC032 19/18 A2991 RMK
                 AO2 RAB14 P0000 T01890178 =
2018-08-18 06:01 METAR KPEO 181001Z AUTO VRB03KT 10SM BKN015 OVC023 19/18 A2990 RMK AO2 T01940178
                 =
2018-08-18 05:53 METAR KPEO 180953Z AUTO VRB04KT 10SM OVC013 19/18 A2990 RMK AO2 SLP119 T01940178
                 =
2018-08-18 05:28 METAR KPEO 180928Z AUTO 01003KT 10SM SCT003 OVC013 19/18 A2991 RMK AO2 T01940178
                 =
2018-08-18 05:04 METAR KPEO 180904Z AUTO VRB04KT 10SM BKN003 OVC009 20/19 A2990 RMK AO2 T02000189
                 =
2018-08-18 04:53 METAR KPEO 180853Z AUTO 35004KT 10SM SCT003 BKN009 OVC023 21/19 A2990 RMK AO2
                 CIG 007V011 SLP117 T02060194 56002 =
2018-08-18 04:37 METAR KPEO 180837Z AUTO VRB06KT 10SM FEW005 BKN023 BKN031 22/20 A2989 RMK AO2
                 T02170200 =
2018-08-18 03:53 METAR KPEO 180753Z AUTO 28003KT 10SM FEW023 SCT070 22/20 A2989 RMK AO2 SLP114
                 T02170200 =
2018-08-18 02:53 METAR KPEO 180653Z AUTO 21006KT 10SM FEW023 BKN080 OVC100 22/21 A2990 RMK AO2
                 SLP118 T02220206 =
2018-08-18 01:53 METAR KPEO 180553Z AUTO 23004KT 10SM FEW015 SCT090 SCT110 22/21 A2990 RMK AO2
                 RAE42 SLP117 P0001 60002 T02220206 10244 20222 58006 =
2018-08-18 00:53 METAR KPEO 180453Z AUTO 20004KT 10SM -RA SCT090 BKN110 23/21 A2991 RMK AO2
                 SLP121 P0001 T02280206 402890206 =
2018-08-17 23:53 METAR KPEO 180353Z AUTO 19004KT 9SM -RA SCT055 BKN070 OVC100 23/21 A2992 RMK AO2
                 RAB51 SLP125 P0000 T02330206 =
2018-08-17 22:53 METAR KPEO 180253Z AUTO 21006KT 10SM FEW060 23/21 A2992 RMK AO2 SLP124 T02330206
                 50006 =
2018-08-17 21:53 METAR KPEO 180153Z AUTO 22004KT 10SM SCT047 OVC060 23/21 A2994 RMK AO2 SLP131
                 T02330206 =
2018-08-17 20:53 METAR KPEO 180053Z AUTO 21006KT 10SM BKN035 BKN048 OVC065 24/22 A2992 RMK AO2
                 SLP125 T02390222 =
2018-08-17 19:53 METAR KPEO 172353Z AUTO 00000KT 10SM CLR 24/22 A2990 RMK AO2 SLP119 60023
                 T02440222 10283 20233 58003 =
2018-08-17 18:53 METAR KPEO 172253Z AUTO 00000KT 10SM BKN039 BKN050 OVC060 26/23 A2991 RMK AO2
                 SLP120 T02560233 =
2018-08-17 17:53 METAR KPEO 172153Z AUTO 20003KT 10SM OVC075 26/22 A2991 RMK AO2 LTG DSNT N-SE
                 SLP122 T02610222 =
2018-08-17 16:53 METAR KPEO 172053Z AUTO 23005KT 10SM OVC065 25/22 A2991 RMK AO2 LTG DSNT N AND
                 SE AND NW RAE1958B04E33 TSE1959 SLP121 P0001 60023 T02500222 58006 =
2018-08-17 15:59 METAR KPEO 171959Z AUTO 24006KT 10SM FEW025 BKN060 OVC075 25/22 A2992 RMK AO2
                 LTG DSNT NW RAE58 TSE59 P0000 T02500217 =
2018-08-17 15:53 METAR KPEO 171953Z AUTO VRB05KT 1 1/2SM -TSRA FEW025 BKN045 OVC070 24/22 A2992
                 RMK AO2 RAB32 TSB44 SLP125 P0022 T02440217 =

Support USWX by starting your Amazon purchase here.